createdAt,value
2022-08-16T00:00:22.142Z,19.69
2022-08-16T00:01:10.536Z,19.66
2022-08-16T00:02:12.755Z,19.65
2022-08-16T00:03:13.216Z,19.65
2022-08-16T00:04:10.366Z,19.61
2022-08-16T00:05:09.570Z,19.61
2022-08-16T00:06:10.092Z,19.61
2022-08-16T00:07:09.476Z,19.63
2022-08-16T00:08:09.447Z,19.61
2022-08-16T00:09:10.764Z,19.63
2022-08-16T00:10:09.415Z,19.58
2022-08-16T00:11:15.690Z,19.60
2022-08-16T00:12:10.592Z,19.58
2022-08-16T00:13:09.428Z,19.55
2022-08-16T00:14:09.377Z,19.55
2022-08-16T00:15:11.702Z,19.55
2022-08-16T00:17:00.692Z,19.54
2022-08-16T00:17:19.123Z,19.54
2022-08-16T00:18:10.450Z,19.53
2022-08-16T00:19:09.336Z,19.53
2022-08-16T00:20:12.497Z,19.53
2022-08-16T00:21:09.265Z,19.53
2022-08-16T00:22:13.419Z,19.53
2022-08-16T00:23:09.256Z,19.54
2022-08-16T00:24:12.127Z,19.55
2022-08-16T00:25:09.247Z,19.58
2022-08-16T00:26:36.839Z,19.57
2022-08-16T00:27:10.203Z,19.55
2022-08-16T00:28:09.212Z,19.54
2022-08-16T00:29:09.167Z,19.54
2022-08-16T00:30:25.954Z,19.54
2022-08-16T00:31:10.198Z,19.55
2022-08-16T00:32:10.941Z,19.54
2022-08-16T00:33:09.134Z,19.53
2022-08-16T00:34:09.099Z,19.51
2022-08-16T00:35:15.625Z,19.50
2022-08-16T00:36:10.108Z,19.48
2022-08-16T00:37:09.087Z,19.47
2022-08-16T00:38:40.174Z,19.46
2022-08-16T00:39:10.057Z,19.46
2022-08-16T00:40:33.590Z,19.47
2022-08-16T00:41:10.250Z,19.46
2022-08-16T00:42:10.150Z,19.46
2022-08-16T00:43:12.078Z,19.46
2022-08-16T00:44:10.059Z,19.42
2022-08-16T00:45:09.464Z,19.42
2022-08-16T00:46:34.190Z,19.40
2022-08-16T00:47:09.958Z,19.42
2022-08-16T00:48:30.396Z,19.42
2022-08-16T00:49:17.432Z,19.40
2022-08-16T00:50:11.708Z,19.40
2022-08-16T00:51:08.993Z,19.39
2022-08-16T00:52:30.384Z,19.33
2022-08-16T00:53:09.883Z,19.32
2022-08-16T00:54:08.838Z,19.29
2022-08-16T00:55:08.937Z,19.28
2022-08-16T00:56:08.975Z,19.23
2022-08-16T00:57:09.795Z,19.20
2022-08-16T00:58:12.982Z,19.15
2022-08-16T00:59:09.777Z,19.11
2022-08-16T01:00:08.772Z,19.08
2022-08-16T01:01:08.931Z,19.05
2022-08-16T01:02:30.993Z,19.02
2022-08-16T01:03:11.737Z,18.99
2022-08-16T01:04:29.371Z,18.95
2022-08-16T01:05:11.474Z,18.92
2022-08-16T01:06:40.606Z,18.91
2022-08-16T01:07:09.699Z,18.86
2022-08-16T01:08:35.446Z,18.86
2022-08-16T01:09:09.643Z,18.84
2022-08-16T01:10:15.919Z,18.84
2022-08-16T01:11:09.659Z,18.83
2022-08-16T01:12:10.674Z,18.83
2022-08-16T01:13:08.649Z,18.82
2022-08-16T01:14:09.205Z,18.82
2022-08-16T01:15:08.593Z,18.84
2022-08-16T01:16:10.094Z,18.86
2022-08-16T01:17:08.596Z,18.91
2022-08-16T01:18:08.517Z,18.91
2022-08-16T01:19:09.529Z,18.92
2022-08-16T01:20:24.162Z,18.92
2022-08-16T01:21:09.459Z,18.97
2022-08-16T01:22:48.073Z,18.99
2022-08-16T01:23:09.485Z,18.99
2022-08-16T01:24:52.017Z,19.01
2022-08-16T01:25:09.457Z,19.01
2022-08-16T01:26:34.211Z,19.01
2022-08-16T01:27:09.414Z,19.06
2022-08-16T01:28:08.379Z,19.10
2022-08-16T01:29:09.859Z,19.14
2022-08-16T01:30:20.447Z,19.17
2022-08-16T01:31:09.339Z,19.14
2022-08-16T01:32:09.313Z,19.13
2022-08-16T01:33:15.466Z,19.10
2022-08-16T01:34:09.407Z,19.06
2022-08-16T01:35:09.331Z,19.05
2022-08-16T01:36:12.141Z,19.02
2022-08-16T01:37:08.311Z,19.01
2022-08-16T01:38:08.249Z,18.98
2022-08-16T01:39:11.764Z,18.97
2022-08-16T01:40:08.354Z,18.95
2022-08-16T01:41:08.240Z,18.94
2022-08-16T01:42:12.972Z,18.92
2022-08-16T01:43:09.563Z,18.91
2022-08-16T01:44:08.270Z,18.87
2022-08-16T01:45:08.163Z,18.86
2022-08-16T01:46:31.222Z,18.84
2022-08-16T01:47:09.169Z,18.83
2022-08-16T01:48:19.527Z,18.83
2022-08-16T01:49:09.159Z,18.82
2022-08-16T01:50:42.873Z,18.80
2022-08-16T01:51:17.088Z,18.82
2022-08-16T01:52:09.060Z,18.84
2022-08-16T01:53:10.055Z,18.84
2022-08-16T01:54:08.066Z,18.86
2022-08-16T01:55:08.034Z,18.87
2022-08-16T01:56:08.003Z,18.90
2022-08-16T01:57:09.082Z,18.92
2022-08-16T01:58:07.982Z,18.92
2022-08-16T01:59:08.021Z,18.92
2022-08-16T02:00:18.975Z,18.92
2022-08-16T02:01:09.003Z,18.91
2022-08-16T02:02:26.655Z,18.92
2022-08-16T02:03:12.569Z,18.91
2022-08-16T02:04:10.584Z,18.92
2022-08-16T02:05:07.900Z,18.91
2022-08-16T02:06:08.144Z,18.92
2022-08-16T02:07:07.865Z,18.91
2022-08-16T02:08:07.866Z,18.91
2022-08-16T02:09:11.770Z,18.91
2022-08-16T02:10:07.836Z,18.91
2022-08-16T02:11:07.810Z,18.87
2022-08-16T02:12:49.327Z,18.87
2022-08-16T02:13:08.774Z,18.84
2022-08-16T02:14:07.812Z,18.83
2022-08-16T02:15:08.757Z,18.82
2022-08-16T02:16:07.731Z,18.82
2022-08-16T02:17:08.740Z,18.79
2022-08-16T02:18:07.945Z,18.76
2022-08-16T02:19:16.510Z,18.74
2022-08-16T02:20:11.676Z,18.72
2022-08-16T02:21:07.804Z,18.72
2022-08-16T02:22:46.560Z,18.72
2022-08-16T02:23:08.691Z,18.70
2022-08-16T02:24:31.639Z,18.70
2022-08-16T02:25:10.082Z,18.68
2022-08-16T02:26:07.618Z,18.68
2022-08-16T02:27:07.583Z,18.67
2022-08-16T02:28:07.609Z,18.68
2022-08-16T02:29:07.607Z,18.65
2022-08-16T02:30:08.558Z,18.65
2022-08-16T02:31:07.621Z,18.70
2022-08-16T02:32:49.747Z,18.67
2022-08-16T02:33:08.804Z,18.67
2022-08-16T02:34:07.570Z,18.70
2022-08-16T02:35:07.510Z,18.72
2022-08-16T02:36:07.461Z,18.72
2022-08-16T02:37:08.492Z,18.68
2022-08-16T02:38:09.020Z,18.70
2022-08-16T02:39:07.426Z,18.70
2022-08-16T02:40:07.457Z,18.67
2022-08-16T02:41:09.871Z,18.65
2022-08-16T02:42:07.398Z,18.64
2022-08-16T02:43:07.381Z,18.61
2022-08-16T02:44:07.362Z,18.61
2022-08-16T02:45:07.601Z,18.59
2022-08-16T02:46:08.054Z,18.61
2022-08-16T02:47:07.340Z,18.61
2022-08-16T02:48:28.477Z,18.61
2022-08-16T02:50:25.862Z,18.59
2022-08-16T02:50:55.054Z,18.58
2022-08-16T02:51:11.113Z,18.59
2022-08-16T02:52:09.142Z,18.58
2022-08-16T02:53:07.264Z,18.57
2022-08-16T02:54:07.212Z,18.58
2022-08-16T02:55:07.242Z,18.57
2022-08-16T02:56:09.910Z,18.57
2022-08-16T02:57:07.184Z,18.55
2022-08-16T02:58:07.169Z,18.55
2022-08-16T02:59:11.440Z,18.52
2022-08-16T03:00:34.149Z,18.52
2022-08-16T03:01:08.241Z,18.49
2022-08-16T03:02:08.127Z,18.50
2022-08-16T03:03:10.380Z,18.47
2022-08-16T03:04:24.737Z,18.47
2022-08-16T03:05:08.092Z,18.47
2022-08-16T03:06:42.086Z,18.46
2022-08-16T03:07:08.068Z,18.46
2022-08-16T03:08:07.052Z,18.44
2022-08-16T03:09:13.136Z,18.43
2022-08-16T03:10:08.019Z,18.42
2022-08-16T03:11:17.895Z,18.42
2022-08-16T03:12:08.090Z,18.40
2022-08-16T03:13:12.521Z,18.43
2022-08-16T03:14:08.495Z,18.40
2022-08-16T03:15:06.943Z,18.39
2022-08-16T03:16:06.977Z,18.42
2022-08-16T03:17:08.014Z,18.39
2022-08-16T03:18:12.449Z,18.36
2022-08-16T03:19:07.923Z,18.37
2022-08-16T03:20:06.873Z,18.37
2022-08-16T03:21:07.915Z,18.39
2022-08-16T03:22:06.843Z,18.39
2022-08-16T03:23:06.862Z,18.39
2022-08-16T03:24:29.445Z,18.39
2022-08-16T03:25:07.805Z,18.37
2022-08-16T03:26:06.786Z,18.37
2022-08-16T03:27:06.819Z,18.36
2022-08-16T03:28:07.604Z,18.36
2022-08-16T03:29:06.824Z,18.36
2022-08-16T03:30:16.382Z,18.34
2022-08-16T03:31:07.725Z,18.31
2022-08-16T03:32:06.704Z,18.28
2022-08-16T03:33:07.627Z,18.28
2022-08-16T03:34:06.752Z,18.27
2022-08-16T03:35:06.676Z,18.25
2022-08-16T03:36:30.284Z,18.24
2022-08-16T03:37:07.682Z,18.22
2022-08-16T03:38:34.039Z,18.27
2022-08-16T03:39:14.797Z,18.27
2022-08-16T03:40:07.702Z,18.27
2022-08-16T03:41:14.377Z,18.27
2022-08-16T03:42:07.564Z,18.25
2022-08-16T03:43:20.501Z,18.22
2022-08-16T03:44:07.554Z,18.21
2022-08-16T03:45:06.517Z,18.21
2022-08-16T03:46:06.737Z,18.22
2022-08-16T03:47:10.146Z,18.25
2022-08-16T03:48:07.091Z,18.25
2022-08-16T03:49:06.484Z,18.24
2022-08-16T03:50:25.358Z,18.21
2022-08-16T03:51:07.465Z,18.19
2022-08-16T03:52:06.481Z,18.18
2022-08-16T03:53:06.442Z,18.15
2022-08-16T03:54:12.236Z,18.10
2022-08-16T03:55:10.477Z,18.09
2022-08-16T03:56:07.690Z,18.07
2022-08-16T03:57:11.330Z,18.06
2022-08-16T03:58:07.384Z,18.06
2022-08-16T03:59:06.346Z,18.06
2022-08-16T04:00:06.345Z,18.06
2022-08-16T04:01:06.404Z,18.04
2022-08-16T04:02:12.226Z,18.03
2022-08-16T04:03:08.548Z,18.04
2022-08-16T04:04:06.266Z,18.06
2022-08-16T04:05:06.271Z,18.09
2022-08-16T04:06:06.255Z,18.09
2022-08-16T04:07:07.257Z,18.09
2022-08-16T04:08:22.345Z,18.07
2022-08-16T04:09:07.213Z,17.95
2022-08-16T04:10:35.860Z,17.97
2022-08-16T04:11:07.267Z,18.00
2022-08-16T04:12:10.529Z,18.03
2022-08-16T04:13:20.488Z,18.04
2022-08-16T04:14:08.913Z,18.04
2022-08-16T04:15:07.846Z,18.06
2022-08-16T04:16:06.492Z,18.06
2022-08-16T04:17:06.088Z,18.12
2022-08-16T04:18:06.076Z,18.13
2022-08-16T04:19:06.068Z,18.10
2022-08-16T04:20:06.547Z,18.10
2022-08-16T04:21:07.067Z,18.15
2022-08-16T04:22:08.846Z,18.17
2022-08-16T04:23:06.317Z,18.18
2022-08-16T04:24:08.065Z,18.15
2022-08-16T04:25:05.986Z,18.15
2022-08-16T04:26:05.979Z,18.13
2022-08-16T04:27:08.904Z,18.13
2022-08-16T04:28:52.093Z,18.13
2022-08-16T04:29:21.645Z,18.13
2022-08-16T04:30:10.880Z,18.15
2022-08-16T04:31:07.347Z,18.15
2022-08-16T04:32:05.918Z,18.15
2022-08-16T04:33:05.886Z,18.17
2022-08-16T04:34:05.917Z,18.17
2022-08-16T04:35:09.378Z,18.22
2022-08-16T04:36:06.821Z,18.22
2022-08-16T04:37:05.850Z,18.25
2022-08-16T04:38:10.939Z,18.31
2022-08-16T04:39:06.786Z,18.40
2022-08-16T04:40:05.912Z,18.39
2022-08-16T04:41:05.756Z,18.40
2022-08-16T04:42:11.378Z,18.50
2022-08-16T04:43:06.800Z,18.67
2022-08-16T04:44:31.106Z,18.80
2022-08-16T04:45:06.822Z,18.97
2022-08-16T04:46:05.714Z,19.13
2022-08-16T04:47:21.586Z,19.32
2022-08-16T04:48:06.700Z,19.50
2022-08-16T04:49:05.735Z,19.65
2022-08-16T04:50:05.682Z,19.79
2022-08-16T04:51:11.521Z,19.88
2022-08-16T04:52:06.626Z,19.98
2022-08-16T04:53:06.634Z,20.13
2022-08-16T04:54:05.584Z,20.25
2022-08-16T04:55:05.620Z,20.30
2022-08-16T04:56:05.575Z,20.39
2022-08-16T04:57:06.565Z,20.54
2022-08-16T04:58:45.011Z,20.64
2022-08-16T04:59:06.568Z,20.79
2022-08-16T05:00:31.693Z,20.90
2022-08-16T05:01:08.051Z,21.05
2022-08-16T05:02:41.989Z,21.05
2022-08-16T05:03:07.654Z,20.99
2022-08-16T05:04:05.450Z,20.87
2022-08-16T05:05:06.462Z,20.80
2022-08-16T05:06:07.098Z,20.74
2022-08-16T05:07:05.454Z,20.81
2022-08-16T05:08:29.543Z,20.74
2022-08-16T05:09:06.500Z,20.68
2022-08-16T05:10:05.368Z,20.69
2022-08-16T05:11:08.286Z,20.80
2022-08-16T05:12:05.357Z,20.87
2022-08-16T05:13:05.349Z,20.90
2022-08-16T05:14:06.762Z,20.95
2022-08-16T05:15:05.309Z,20.91
2022-08-16T05:16:06.119Z,21.08
2022-08-16T05:17:05.390Z,21.51
2022-08-16T05:18:05.290Z,21.94
2022-08-16T05:19:05.296Z,22.35
2022-08-16T05:20:39.291Z,22.69
2022-08-16T05:21:09.705Z,22.97
2022-08-16T05:22:06.261Z,23.23
2022-08-16T05:23:06.349Z,23.40
2022-08-16T05:24:06.139Z,23.53
2022-08-16T05:25:09.242Z,23.64
2022-08-16T05:26:06.158Z,23.62
2022-08-16T05:27:11.081Z,23.26
2022-08-16T05:28:06.162Z,22.80
2022-08-16T05:29:05.153Z,22.82
2022-08-16T05:30:34.808Z,22.83
2022-08-16T05:31:06.834Z,23.04
2022-08-16T05:32:05.105Z,23.35
2022-08-16T05:33:06.063Z,23.65
2022-08-16T05:34:05.058Z,23.85
2022-08-16T05:35:06.072Z,23.94
2022-08-16T05:36:05.053Z,23.94
2022-08-16T05:37:06.048Z,23.90
2022-08-16T05:38:05.004Z,23.95
2022-08-16T05:39:06.024Z,23.85
2022-08-16T05:40:06.169Z,23.72
2022-08-16T05:41:05.024Z,23.67
2022-08-16T05:42:04.972Z,23.38
2022-08-16T05:43:04.975Z,23.39
2022-08-16T05:44:05.242Z,23.47
2022-08-16T05:45:06.919Z,23.43
2022-08-16T05:46:04.923Z,23.62
2022-08-16T05:47:06.105Z,23.90
2022-08-16T05:48:04.903Z,24.08
2022-08-16T05:49:08.521Z,24.29
2022-08-16T05:50:04.878Z,24.45
2022-08-16T05:51:04.850Z,24.68
2022-08-16T05:52:04.859Z,24.90
2022-08-16T05:53:05.861Z,25.07
2022-08-16T05:54:04.802Z,25.31
2022-08-16T05:55:04.826Z,25.59
2022-08-16T05:56:04.799Z,25.75
2022-08-16T05:57:04.784Z,25.71
2022-08-16T05:58:04.742Z,25.28
2022-08-16T05:59:06.531Z,24.77
2022-08-16T06:00:09.100Z,24.60
2022-08-16T06:01:04.777Z,24.49
2022-08-16T06:02:06.134Z,24.23
2022-08-16T06:03:04.707Z,24.12
2022-08-16T06:04:12.950Z,24.22
2022-08-16T06:05:05.688Z,24.23
2022-08-16T06:06:04.662Z,24.04
2022-08-16T06:07:06.835Z,23.97
2022-08-16T06:08:04.624Z,24.01
2022-08-16T06:09:04.612Z,24.22
2022-08-16T06:10:04.627Z,24.41
2022-08-16T06:11:11.119Z,24.68
2022-08-16T06:12:05.570Z,24.52
2022-08-16T06:13:04.619Z,24.61
2022-08-16T06:14:04.592Z,24.83
2022-08-16T06:15:07.985Z,24.97
2022-08-16T06:16:05.521Z,25.02
2022-08-16T06:17:05.580Z,25.13
2022-08-16T06:18:04.561Z,25.37
2022-08-16T06:19:04.804Z,25.52
2022-08-16T06:20:04.480Z,25.79
2022-08-16T06:21:04.458Z,26.09
2022-08-16T06:22:04.449Z,26.20
2022-08-16T06:23:11.740Z,26.11
2022-08-16T06:24:52.536Z,26.15
2022-08-16T06:25:05.443Z,26.15
2022-08-16T06:26:04.418Z,26.31
2022-08-16T06:27:04.442Z,26.44
2022-08-16T06:28:08.666Z,26.25
2022-08-16T06:29:05.413Z,26.12
2022-08-16T06:30:04.407Z,26.06
2022-08-16T06:31:04.726Z,26.15
2022-08-16T06:32:04.459Z,26.25
2022-08-16T06:33:04.383Z,26.52
2022-08-16T06:34:04.324Z,26.87
2022-08-16T06:35:05.332Z,27.10
2022-08-16T06:36:04.317Z,27.20
2022-08-16T06:37:04.314Z,27.38
2022-08-16T06:38:04.276Z,27.42
2022-08-16T06:39:06.095Z,27.61
2022-08-16T06:40:04.265Z,27.77
2022-08-16T06:41:04.290Z,27.96
2022-08-16T06:42:04.217Z,27.88
2022-08-16T06:43:04.490Z,27.31
2022-08-16T06:44:04.244Z,26.50
2022-08-16T06:45:04.398Z,25.87
2022-08-16T06:46:04.166Z,25.42
2022-08-16T06:47:04.168Z,25.06
2022-08-16T06:48:04.146Z,24.75
2022-08-16T06:49:05.420Z,24.34
2022-08-16T06:50:04.114Z,23.97
2022-08-16T06:51:04.140Z,23.68
2022-08-16T06:52:04.117Z,23.61
2022-08-16T06:53:06.779Z,23.49
2022-08-16T06:54:05.097Z,23.40
2022-08-16T06:55:04.049Z,23.32
2022-08-16T06:56:04.041Z,23.42
2022-08-16T06:57:04.062Z,23.47
2022-08-16T06:58:08.546Z,23.46
2022-08-16T06:59:04.989Z,23.40
2022-08-16T07:00:04.008Z,23.34
2022-08-16T07:01:09.883Z,23.27
2022-08-16T07:02:04.989Z,23.32
2022-08-16T07:03:26.841Z,23.39
2022-08-16T07:04:05.000Z,23.38
2022-08-16T07:05:14.965Z,23.23
2022-08-16T07:06:04.907Z,23.17
2022-08-16T07:07:03.931Z,23.09
2022-08-16T07:08:03.909Z,22.97
2022-08-16T07:09:09.782Z,22.89
2022-08-16T07:10:08.858Z,22.92
2022-08-16T07:11:03.860Z,22.93
2022-08-16T07:12:05.565Z,22.99
2022-08-16T07:13:11.823Z,23.09
2022-08-16T07:14:25.259Z,23.19
2022-08-16T07:15:04.830Z,23.22
2022-08-16T07:16:03.883Z,23.20
2022-08-16T07:17:08.478Z,23.20
2022-08-16T07:18:04.773Z,23.15
2022-08-16T07:19:03.831Z,23.14
2022-08-16T07:20:35.101Z,23.17
2022-08-16T07:21:04.706Z,23.14
2022-08-16T07:22:03.883Z,23.19
2022-08-16T07:23:04.198Z,23.20
2022-08-16T07:24:06.092Z,23.32
2022-08-16T07:25:03.700Z,23.34
2022-08-16T07:26:03.647Z,23.34
2022-08-16T07:27:03.653Z,23.43
2022-08-16T07:28:03.633Z,23.55
2022-08-16T07:29:03.634Z,23.70
2022-08-16T07:30:03.609Z,23.76
2022-08-16T07:31:03.634Z,23.80
2022-08-16T07:32:03.548Z,23.85
2022-08-16T07:33:03.552Z,23.87
2022-08-16T07:34:03.571Z,23.92
2022-08-16T07:35:04.621Z,23.90
2022-08-16T07:36:03.505Z,23.89
2022-08-16T07:37:03.514Z,24.01
2022-08-16T07:38:03.623Z,24.08
2022-08-16T07:39:03.509Z,24.10
2022-08-16T07:40:11.093Z,24.16
2022-08-16T07:41:09.559Z,24.19
2022-08-16T07:42:07.056Z,24.24
2022-08-16T07:43:03.473Z,24.35
2022-08-16T07:44:03.496Z,24.29
2022-08-16T07:45:10.069Z,24.19
2022-08-16T07:46:04.405Z,24.17
2022-08-16T07:47:03.470Z,24.24
2022-08-16T07:48:11.194Z,24.34
2022-08-16T07:49:04.421Z,24.47
2022-08-16T07:50:07.526Z,24.64
2022-08-16T07:51:06.884Z,24.77
2022-08-16T07:52:20.515Z,24.80
2022-08-16T07:53:04.339Z,24.79
2022-08-16T07:54:10.185Z,24.69
2022-08-16T07:55:04.258Z,24.57
2022-08-16T07:56:04.409Z,24.49
2022-08-16T07:57:03.234Z,24.47
2022-08-16T07:58:03.550Z,24.42
2022-08-16T07:59:03.266Z,24.49
2022-08-16T08:00:03.196Z,24.57
2022-08-16T08:01:03.220Z,24.63
2022-08-16T08:02:03.187Z,24.59
2022-08-16T08:03:03.208Z,24.56
2022-08-16T08:04:03.442Z,24.63
2022-08-16T08:05:03.498Z,24.68
2022-08-16T08:06:03.139Z,24.64
2022-08-16T08:07:03.867Z,24.61
2022-08-16T08:08:11.435Z,24.59
2022-08-16T08:09:04.100Z,24.60
2022-08-16T08:10:03.922Z,24.53
2022-08-16T08:11:09.353Z,24.53
2022-08-16T08:12:05.255Z,24.56
2022-08-16T08:13:03.056Z,24.61
2022-08-16T08:14:04.057Z,24.71
2022-08-16T08:15:03.026Z,24.82
2022-08-16T08:16:02.992Z,24.87
2022-08-16T08:17:03.069Z,24.87
2022-08-16T08:18:29.830Z,24.94
2022-08-16T08:19:03.954Z,25.01
2022-08-16T08:20:02.972Z,25.05
2022-08-16T08:21:02.940Z,24.94
2022-08-16T08:22:06.156Z,24.80
2022-08-16T08:23:02.913Z,24.71
2022-08-16T08:24:02.893Z,24.61
2022-08-16T08:25:03.987Z,24.56
2022-08-16T08:26:04.523Z,24.50
2022-08-16T08:27:04.257Z,24.45
2022-08-16T08:28:02.863Z,24.38
2022-08-16T08:29:02.865Z,24.26
2022-08-16T08:30:43.974Z,24.22
2022-08-16T08:31:04.009Z,24.19
2022-08-16T08:32:02.811Z,24.16
2022-08-16T08:33:04.102Z,24.12
2022-08-16T08:34:04.891Z,24.08
2022-08-16T08:35:03.542Z,24.02
2022-08-16T08:36:02.772Z,23.98
2022-08-16T08:37:02.712Z,23.95
2022-08-16T08:38:02.767Z,23.90
2022-08-16T08:39:02.727Z,23.92
2022-08-16T08:40:03.721Z,23.94
2022-08-16T08:41:02.651Z,23.98
2022-08-16T08:42:03.669Z,24.00
2022-08-16T08:43:12.628Z,24.02
2022-08-16T08:44:28.648Z,24.05
2022-08-16T08:45:03.725Z,24.14
2022-08-16T08:46:02.593Z,24.23
2022-08-16T08:47:07.916Z,24.29
2022-08-16T08:48:34.966Z,24.35
2022-08-16T08:49:03.570Z,24.41
2022-08-16T08:50:02.523Z,24.49
2022-08-16T08:51:23.147Z,24.54
2022-08-16T08:52:03.503Z,24.56
2022-08-16T08:53:03.493Z,24.53
2022-08-16T08:54:02.567Z,24.53
2022-08-16T08:55:02.600Z,24.53
2022-08-16T08:56:22.418Z,24.56
2022-08-16T08:57:03.569Z,24.57
2022-08-16T08:58:02.491Z,24.60
2022-08-16T08:59:12.741Z,24.67
2022-08-16T09:00:03.424Z,24.71
2022-08-16T09:01:03.477Z,24.75
2022-08-16T09:02:03.139Z,24.73
2022-08-16T09:03:04.549Z,24.73
2022-08-16T09:04:02.528Z,24.73
2022-08-16T09:05:02.462Z,24.71
2022-08-16T09:06:03.372Z,24.71
2022-08-16T09:07:02.328Z,24.73
2022-08-16T09:08:05.802Z,24.67
2022-08-16T09:09:02.335Z,24.64
2022-08-16T09:10:20.143Z,24.67
2022-08-16T09:11:03.380Z,24.69
2022-08-16T09:12:06.516Z,24.80
2022-08-16T09:13:02.249Z,24.88
2022-08-16T09:14:02.224Z,25.00
2022-08-16T09:15:02.192Z,25.10
2022-08-16T09:16:02.538Z,25.17
2022-08-16T09:17:14.016Z,25.22
2022-08-16T09:18:25.197Z,25.24
2022-08-16T09:19:04.088Z,25.15
2022-08-16T09:20:04.826Z,25.10
2022-08-16T09:21:02.208Z,25.05
2022-08-16T09:22:02.261Z,25.00
2022-08-16T09:23:02.128Z,24.98
2022-08-16T09:24:02.120Z,24.98
2022-08-16T09:25:09.901Z,25.09
2022-08-16T09:26:03.149Z,25.15
2022-08-16T09:27:03.051Z,25.13
2022-08-16T09:28:02.681Z,25.12
2022-08-16T09:29:15.862Z,25.10
2022-08-16T09:30:33.257Z,25.07
2022-08-16T09:31:03.097Z,25.05
2022-08-16T09:32:01.960Z,24.95
2022-08-16T09:33:01.957Z,24.92
2022-08-16T09:34:01.962Z,24.98
2022-08-16T09:35:12.601Z,25.01
2022-08-16T09:36:01.936Z,25.05
2022-08-16T09:37:01.920Z,25.13
2022-08-16T09:38:01.906Z,25.25
2022-08-16T09:39:02.099Z,25.32
2022-08-16T09:40:01.928Z,25.34
2022-08-16T09:41:02.036Z,25.28
2022-08-16T09:42:01.851Z,25.17
2022-08-16T09:43:02.052Z,25.19
2022-08-16T09:44:02.674Z,25.25
2022-08-16T09:45:10.846Z,25.30
2022-08-16T09:46:02.801Z,25.32
2022-08-16T09:47:01.801Z,25.39
2022-08-16T09:48:02.792Z,25.50
2022-08-16T09:49:03.343Z,25.59
2022-08-16T09:50:01.762Z,25.67
2022-08-16T09:51:01.815Z,25.69
2022-08-16T09:52:01.836Z,25.74
2022-08-16T09:53:01.728Z,25.82
2022-08-16T09:54:01.799Z,25.87
2022-08-16T09:55:01.702Z,26.01
2022-08-16T09:56:26.527Z,26.09
2022-08-16T09:57:01.641Z,26.15
2022-08-16T09:58:01.683Z,26.11
2022-08-16T10:00:42.677Z,26.01
2022-08-16T10:01:12.504Z,26.04
2022-08-16T10:02:27.131Z,26.15
2022-08-16T10:03:12.527Z,26.22
2022-08-16T10:04:34.250Z,26.35
2022-08-16T10:05:12.497Z,26.35
2022-08-16T10:06:11.453Z,26.36
2022-08-16T10:07:14.715Z,26.40
2022-08-16T10:08:26.793Z,26.40
2022-08-16T10:09:12.414Z,26.36
2022-08-16T10:10:11.918Z,26.24
2022-08-16T10:11:11.514Z,26.18
2022-08-16T10:12:19.428Z,26.11
2022-08-16T10:13:12.339Z,26.08
2022-08-16T10:14:11.367Z,26.11
2022-08-16T10:15:15.638Z,26.09
2022-08-16T10:17:11.331Z,25.99
2022-08-16T10:19:02.242Z,25.99
2022-08-16T10:19:12.246Z,26.04
2022-08-16T10:20:17.814Z,26.11
2022-08-16T10:21:12.278Z,26.08
2022-08-16T10:22:12.649Z,26.01
2022-08-16T10:23:17.176Z,25.98
2022-08-16T10:24:12.258Z,26.05
2022-08-16T10:25:12.193Z,26.20
2022-08-16T10:27:17.072Z,26.27
2022-08-16T10:27:25.177Z,26.29
2022-08-16T10:28:28.075Z,26.32
2022-08-16T10:29:12.225Z,26.32
2022-08-16T10:30:24.781Z,26.31
2022-08-16T10:31:16.715Z,26.32
2022-08-16T10:32:12.103Z,26.27
2022-08-16T10:33:12.110Z,26.15
2022-08-16T10:34:31.656Z,26.06
2022-08-16T10:35:12.084Z,26.01
2022-08-16T10:36:12.856Z,26.02
2022-08-16T10:37:12.106Z,26.11
2022-08-16T10:38:10.960Z,26.12
2022-08-16T10:39:12.139Z,26.11
2022-08-16T10:40:29.568Z,26.20
2022-08-16T10:41:15.974Z,26.28
2022-08-16T10:42:13.558Z,26.37
2022-08-16T10:43:18.551Z,26.40
2022-08-16T10:44:12.443Z,26.42
2022-08-16T10:45:12.004Z,26.43
2022-08-16T10:46:33.619Z,26.49
2022-08-16T10:47:11.864Z,26.57
2022-08-16T10:48:27.965Z,26.67
2022-08-16T10:49:11.823Z,26.73
2022-08-16T10:50:19.551Z,26.83
2022-08-16T10:51:11.847Z,26.92
2022-08-16T10:52:18.913Z,27.02
2022-08-16T10:53:11.812Z,27.10
2022-08-16T10:54:28.857Z,27.10
2022-08-16T10:56:56.147Z,27.06
2022-08-16T10:57:12.160Z,27.10
2022-08-16T10:58:11.562Z,27.17
2022-08-16T11:00:20.841Z,27.20
2022-08-16T11:01:39.849Z,27.21
2022-08-16T11:02:57.954Z,27.16
2022-08-16T11:05:11.879Z,27.20
2022-08-16T11:06:12.078Z,27.11
2022-08-16T11:08:11.573Z,26.83
2022-08-16T11:09:25.216Z,26.72
2022-08-16T11:11:19.153Z,26.79
2022-08-16T11:12:13.236Z,26.86
2022-08-16T11:14:11.914Z,27.02
2022-08-16T11:15:11.979Z,27.02
2022-08-16T11:16:26.919Z,27.05
2022-08-16T11:17:11.618Z,27.11
2022-08-16T11:19:03.130Z,27.09
2022-08-16T11:19:13.163Z,27.06
2022-08-16T11:21:29.075Z,27.09
2022-08-16T11:22:38.544Z,27.23
2022-08-16T11:23:11.526Z,27.32
2022-08-16T11:24:39.255Z,27.33
2022-08-16T11:25:12.275Z,27.29
2022-08-16T11:26:23.942Z,27.26
2022-08-16T11:27:20.574Z,27.29
2022-08-16T11:28:11.415Z,27.31
2022-08-16T11:29:13.278Z,27.35
2022-08-16T11:30:12.233Z,27.39
2022-08-16T11:31:11.292Z,27.51
2022-08-16T11:32:10.327Z,27.59
2022-08-16T11:33:10.721Z,27.62
2022-08-16T11:34:10.235Z,27.62
2022-08-16T11:35:14.916Z,27.66
2022-08-16T11:36:28.147Z,27.62
2022-08-16T11:37:19.375Z,27.69
2022-08-16T11:38:42.274Z,27.67
2022-08-16T11:39:11.163Z,27.64
2022-08-16T11:40:10.283Z,27.64
2022-08-16T11:41:10.327Z,27.58
2022-08-16T11:42:23.218Z,27.53
2022-08-16T11:43:11.110Z,27.54
2022-08-16T11:44:10.090Z,27.53
2022-08-16T11:45:11.096Z,27.57
2022-08-16T11:46:43.685Z,27.57
2022-08-16T11:47:11.112Z,27.54
2022-08-16T11:48:10.030Z,27.59
2022-08-16T11:49:13.687Z,27.59
2022-08-16T11:50:10.126Z,27.66
2022-08-16T11:51:10.006Z,27.62
2022-08-16T11:52:10.008Z,27.62
2022-08-16T11:53:10.062Z,27.64
2022-08-16T11:54:15.576Z,27.66
2022-08-16T11:55:11.153Z,27.59
2022-08-16T11:56:09.949Z,27.54
2022-08-16T11:57:11.002Z,27.51
2022-08-16T11:58:10.879Z,27.46
2022-08-16T11:59:10.060Z,27.43
2022-08-16T12:00:10.165Z,27.51
2022-08-16T12:01:10.915Z,27.57
2022-08-16T12:02:30.961Z,27.61
2022-08-16T12:03:10.843Z,27.64
2022-08-16T12:04:09.975Z,27.67
2022-08-16T12:05:10.087Z,27.67
2022-08-16T12:06:10.898Z,27.64
2022-08-16T12:07:09.780Z,27.64
2022-08-16T12:08:09.767Z,27.66
2022-08-16T12:09:10.078Z,27.67
2022-08-16T12:10:10.035Z,27.71
2022-08-16T12:11:09.751Z,27.80
2022-08-16T12:12:09.779Z,27.88
2022-08-16T12:13:10.331Z,27.91
2022-08-16T12:14:09.697Z,27.95
2022-08-16T12:15:09.922Z,28.03
2022-08-16T12:16:09.801Z,28.09
2022-08-16T12:17:09.693Z,28.16
2022-08-16T12:18:09.681Z,28.26
2022-08-16T12:19:10.489Z,28.26
2022-08-16T12:20:12.767Z,28.19
2022-08-16T12:21:09.846Z,27.99
2022-08-16T12:22:19.443Z,27.82
2022-08-16T12:23:10.680Z,27.62
2022-08-16T12:24:09.554Z,27.48
2022-08-16T12:25:09.594Z,27.47
2022-08-16T12:26:10.665Z,27.51
2022-08-16T12:27:09.585Z,27.70
2022-08-16T12:28:09.722Z,27.99
2022-08-16T12:29:09.547Z,28.28
2022-08-16T12:30:26.458Z,28.46
2022-08-16T12:31:10.559Z,28.53
2022-08-16T12:32:37.465Z,28.59
2022-08-16T12:33:10.496Z,28.60
2022-08-16T12:34:09.446Z,28.63
2022-08-16T12:35:10.459Z,28.59
2022-08-16T12:36:09.858Z,28.46
2022-08-16T12:37:11.835Z,28.35
2022-08-16T12:38:41.539Z,28.31
2022-08-16T12:39:10.579Z,28.17
2022-08-16T12:40:24.005Z,28.14
2022-08-16T12:41:10.329Z,28.19
2022-08-16T12:42:09.407Z,28.25
2022-08-16T12:43:09.370Z,28.28
2022-08-16T12:44:09.361Z,28.38
2022-08-16T12:45:09.460Z,28.46
2022-08-16T12:46:09.387Z,28.59
2022-08-16T12:47:09.287Z,28.60
2022-08-16T12:48:31.509Z,28.62
2022-08-16T12:49:10.272Z,28.68
2022-08-16T12:50:10.607Z,28.72
2022-08-16T12:51:13.701Z,28.72
2022-08-16T12:52:10.298Z,28.68
2022-08-16T12:53:10.209Z,28.59
2022-08-16T12:54:09.345Z,28.50
2022-08-16T12:55:09.207Z,28.43
2022-08-16T12:56:10.204Z,28.35
2022-08-16T12:57:13.984Z,28.31
2022-08-16T12:58:13.884Z,28.36
2022-08-16T12:59:11.521Z,28.48
2022-08-16T13:00:09.148Z,28.62
2022-08-16T13:01:09.446Z,28.72
2022-08-16T13:02:12.511Z,28.63